createdAt,value
2018-06-04T00:02:16.501Z,15.40
2018-06-04T00:04:45.760Z,15.30
2018-06-04T00:07:14.068Z,15.30
2018-06-04T00:09:42.388Z,15.30
2018-06-04T00:12:10.716Z,15.30
2018-06-04T00:14:39.071Z,15.30
2018-06-04T00:17:07.385Z,15.30
2018-06-04T00:19:35.732Z,15.30
2018-06-04T00:22:04.110Z,15.20
2018-06-04T00:24:32.449Z,15.20
2018-06-04T00:27:00.755Z,15.20
2018-06-04T00:29:29.116Z,15.20
2018-06-04T00:31:58.006Z,15.20
2018-06-04T00:34:26.285Z,15.10
2018-06-04T00:36:54.616Z,15.10
2018-06-04T00:39:22.914Z,15.10
2018-06-04T00:41:51.243Z,15.00
2018-06-04T00:44:19.546Z,15.00
2018-06-04T00:46:47.868Z,15.00
2018-06-04T00:49:16.197Z,15.00
2018-06-04T00:51:44.528Z,15.00
2018-06-04T00:54:12.825Z,15.00
2018-06-04T00:56:41.160Z,14.90
2018-06-04T00:59:09.492Z,15.00
2018-06-04T01:01:37.936Z,14.90
2018-06-04T01:04:06.260Z,14.90
2018-06-04T01:06:34.568Z,14.90
2018-06-04T01:09:03.039Z,14.90
2018-06-04T01:11:31.332Z,14.90
2018-06-04T01:13:59.684Z,14.90
2018-06-04T01:16:28.008Z,15.00
2018-06-04T01:18:56.309Z,15.00
2018-06-04T01:21:24.605Z,15.10
2018-06-04T01:23:52.935Z,15.10
2018-06-04T01:26:21.292Z,15.20
2018-06-04T01:28:49.640Z,15.20
2018-06-04T01:31:18.036Z,15.30
2018-06-04T01:33:46.318Z,15.30
2018-06-04T01:38:42.719Z,15.40
2018-06-04T01:41:11.044Z,15.40
2018-06-04T01:43:39.379Z,15.40
2018-06-04T01:46:07.685Z,15.50
2018-06-04T01:48:36.008Z,15.50
2018-06-04T01:51:04.348Z,15.60
2018-06-04T01:53:32.673Z,15.60
2018-06-04T01:56:01.104Z,15.60
2018-06-04T01:58:29.419Z,15.70
2018-06-04T02:00:57.765Z,15.70
2018-06-04T02:05:54.143Z,15.70
2018-06-04T02:08:22.528Z,15.70
2018-06-04T02:10:50.889Z,15.80
2018-06-04T02:13:19.188Z,15.80
2018-06-04T02:15:47.616Z,15.80
2018-06-04T02:18:15.916Z,15.80
2018-06-04T02:20:44.451Z,15.90
2018-06-04T02:23:12.805Z,15.90
2018-06-04T02:25:41.148Z,15.90
2018-06-04T02:28:09.537Z,15.90
2018-06-04T02:30:38.078Z,15.90
2018-06-04T02:33:06.484Z,15.90
2018-06-04T02:35:34.798Z,15.90
2018-06-04T02:38:03.125Z,15.90
2018-06-04T02:40:31.435Z,16.00
2018-06-04T02:42:59.827Z,16.00
2018-06-04T02:45:28.189Z,16.00
2018-06-04T02:47:56.790Z,16.00
2018-06-04T02:50:25.111Z,16.00
2018-06-04T02:53:00.015Z,16.00
2018-06-04T02:55:28.345Z,16.10
2018-06-04T02:57:56.704Z,16.10
2018-06-04T03:00:25.040Z,16.10
2018-06-04T03:02:53.381Z,16.10
2018-06-04T03:07:49.745Z,16.20
2018-06-04T03:10:18.063Z,16.20
2018-06-04T03:12:46.392Z,16.20
2018-06-04T03:15:14.715Z,16.20
2018-06-04T03:17:43.042Z,16.20
2018-06-04T03:20:11.334Z,16.20
2018-06-04T03:22:39.664Z,16.20
2018-06-04T03:25:07.980Z,16.20
2018-06-04T03:27:36.288Z,16.20
2018-06-04T03:30:04.697Z,16.30
2018-06-04T03:32:32.996Z,16.30
2018-06-04T03:35:01.324Z,16.30
2018-06-04T03:37:29.611Z,16.30
2018-06-04T03:39:57.924Z,16.30
2018-06-04T03:44:54.280Z,16.40
2018-06-04T03:47:22.608Z,16.40
2018-06-04T03:49:50.927Z,16.40
2018-06-04T03:52:19.248Z,16.40
2018-06-04T03:54:47.572Z,16.40
2018-06-04T03:57:15.896Z,16.40
2018-06-04T03:59:44.220Z,16.40
2018-06-04T04:02:12.696Z,16.40
2018-06-04T04:04:40.999Z,16.40
2018-06-04T04:07:09.300Z,16.40
2018-06-04T04:09:37.608Z,16.50
2018-06-04T04:12:05.960Z,16.50
2018-06-04T04:14:35.136Z,16.50
2018-06-04T04:17:03.428Z,16.50
2018-06-04T04:19:31.736Z,16.50
2018-06-04T04:22:00.060Z,16.50
2018-06-04T04:24:28.505Z,16.50
2018-06-04T04:26:56.822Z,16.60
2018-06-04T04:31:53.331Z,16.50
2018-06-04T04:34:21.650Z,16.60
2018-06-04T04:36:49.978Z,16.60
2018-06-04T04:39:18.405Z,16.60
2018-06-04T04:41:46.751Z,16.60
2018-06-04T04:44:15.060Z,16.70
2018-06-04T04:46:43.442Z,16.60
2018-06-04T04:49:11.688Z,16.60
2018-06-04T04:51:40.078Z,16.60
2018-06-04T04:54:08.439Z,16.70
2018-06-04T04:56:36.748Z,16.70
2018-06-04T04:59:05.174Z,16.70
2018-06-04T05:01:33.490Z,16.70
2018-06-04T05:04:01.813Z,16.70
2018-06-04T05:06:30.128Z,16.70
2018-06-04T05:08:58.776Z,16.70
2018-06-04T05:11:27.179Z,16.70
2018-06-04T05:13:55.556Z,16.80
2018-06-04T05:16:23.902Z,16.80
2018-06-04T05:18:52.310Z,16.80
2018-06-04T05:21:20.610Z,16.80
2018-06-04T05:23:49.409Z,16.80
2018-06-04T05:26:17.740Z,16.80
2018-06-04T05:28:46.076Z,16.80
2018-06-04T05:31:14.470Z,16.80
2018-06-04T05:33:42.760Z,16.80
2018-06-04T05:36:11.122Z,16.80
2018-06-04T05:38:39.404Z,16.80
2018-06-04T05:41:07.724Z,16.80
2018-06-04T05:43:36.076Z,16.80
2018-06-04T05:46:04.441Z,16.90
2018-06-04T05:48:32.825Z,16.80
2018-06-04T05:51:01.299Z,16.90
2018-06-04T05:53:29.600Z,16.90
2018-06-04T05:55:58.001Z,16.90
2018-06-04T05:58:26.320Z,16.90
2018-06-04T06:00:54.649Z,16.90
2018-06-04T06:03:22.994Z,16.90
2018-06-04T06:05:51.292Z,17.00
2018-06-04T06:08:19.599Z,17.00
2018-06-04T06:10:47.920Z,17.00
2018-06-04T06:13:16.247Z,17.00
2018-06-04T06:15:44.569Z,17.00
2018-06-04T06:18:12.860Z,17.10
2018-06-04T06:20:41.189Z,17.00
2018-06-04T06:23:09.729Z,17.10
2018-06-04T06:25:38.088Z,17.10
2018-06-04T06:28:06.436Z,17.10
2018-06-04T06:30:34.740Z,17.10
2018-06-04T06:33:03.069Z,17.10
2018-06-04T06:35:31.377Z,17.10
2018-06-04T06:37:59.727Z,17.10
2018-06-04T06:40:28.352Z,17.10
2018-06-04T06:42:56.696Z,17.10
2018-06-04T06:45:25.011Z,17.10
2018-06-04T06:47:53.353Z,17.10
2018-06-04T06:50:21.644Z,17.10
2018-06-04T06:52:49.968Z,17.10
2018-06-04T06:55:18.282Z,17.10
2018-06-04T06:57:46.595Z,17.10
2018-06-04T07:00:14.891Z,17.10
2018-06-04T07:02:43.520Z,17.10
2018-06-04T07:05:12.024Z,17.10
2018-06-04T07:07:40.384Z,17.00
2018-06-04T07:10:08.707Z,17.00
2018-06-04T07:12:37.019Z,17.00
2018-06-04T07:15:05.380Z,17.00
2018-06-04T07:17:33.692Z,17.00
2018-06-04T07:20:02.086Z,17.00
2018-06-04T07:22:30.400Z,17.00
2018-06-04T07:24:58.743Z,17.00
2018-06-04T07:27:27.119Z,17.10
2018-06-04T07:29:55.521Z,17.10
2018-06-04T07:32:23.885Z,17.10
2018-06-04T07:34:52.191Z,17.10
2018-06-04T07:37:20.496Z,17.20
2018-06-04T07:39:48.869Z,17.20
2018-06-04T07:42:17.229Z,17.30
2018-06-04T07:44:45.580Z,17.40
2018-06-04T07:47:13.985Z,17.50
2018-06-04T07:49:42.368Z,17.60
2018-06-04T07:52:10.658Z,17.70
2018-06-04T07:54:38.986Z,17.70
2018-06-04T07:57:07.289Z,17.70
2018-06-04T07:59:35.593Z,17.70
2018-06-04T08:02:04.019Z,17.70
2018-06-04T08:04:32.340Z,17.80
2018-06-04T08:07:00.801Z,17.80
2018-06-04T08:09:29.105Z,17.80
2018-06-04T08:11:57.385Z,17.80
2018-06-04T08:14:25.897Z,17.80
2018-06-04T08:16:54.709Z,17.90
2018-06-04T08:19:23.004Z,17.90
2018-06-04T08:21:51.298Z,17.90
2018-06-04T08:24:19.664Z,17.90
2018-06-04T08:26:48.231Z,17.90
2018-06-04T08:29:16.580Z,17.90
2018-06-04T08:31:44.989Z,17.90
2018-06-04T08:34:13.311Z,17.90
2018-06-04T08:36:41.703Z,17.90
2018-06-04T08:39:10.039Z,17.90
2018-06-04T08:41:38.361Z,17.90
2018-06-04T08:44:06.659Z,17.90
2018-06-04T08:46:35.024Z,17.90
2018-06-04T08:49:03.340Z,17.80
2018-06-04T08:51:31.657Z,17.80
2018-06-04T08:54:00.048Z,17.80
2018-06-04T08:56:28.384Z,17.80
2018-06-04T08:58:56.721Z,17.80
2018-06-04T09:01:25.045Z,17.80
2018-06-04T09:03:53.396Z,17.80
2018-06-04T09:06:21.687Z,17.80
2018-06-04T09:08:50.150Z,17.80
2018-06-04T09:11:18.524Z,17.80
2018-06-04T09:13:46.897Z,17.80
2018-06-04T09:16:15.605Z,17.70
2018-06-04T09:18:43.949Z,17.70
2018-06-04T09:21:12.362Z,17.70
2018-06-04T09:23:40.729Z,17.80
2018-06-04T09:26:09.108Z,17.80
2018-06-04T09:28:37.459Z,17.80
2018-06-04T09:31:05.848Z,17.80
2018-06-04T09:33:36.231Z,17.80
2018-06-04T09:36:04.752Z,17.80
2018-06-04T09:38:33.288Z,17.80
2018-06-04T09:41:01.671Z,17.80
2018-06-04T09:45:58.128Z,17.80
2018-06-04T09:48:27.120Z,17.80
2018-06-04T09:50:55.489Z,17.90
2018-06-04T09:53:23.836Z,17.90
2018-06-04T09:55:52.565Z,18.00
2018-06-04T09:58:22.033Z,18.10
2018-06-04T10:00:50.347Z,18.20
2018-06-04T10:03:18.700Z,18.20
2018-06-04T10:05:47.088Z,18.20
2018-06-04T10:08:15.371Z,18.20
2018-06-04T10:10:43.677Z,18.20
2018-06-04T10:13:12.008Z,18.20
2018-06-04T10:15:40.365Z,18.20
2018-06-04T10:18:08.648Z,18.20
2018-06-04T10:20:36.952Z,18.10
2018-06-04T10:23:05.320Z,18.10
2018-06-04T10:25:33.660Z,18.00
2018-06-04T10:28:01.989Z,18.00
2018-06-04T10:30:36.981Z,18.10
2018-06-04T10:33:05.330Z,18.10
2018-06-04T10:35:33.621Z,18.10
2018-06-04T10:38:02.007Z,18.10
2018-06-04T10:42:58.523Z,18.20
2018-06-04T10:45:26.868Z,18.20
2018-06-04T10:47:55.172Z,18.10
2018-06-04T10:50:23.531Z,18.10
2018-06-04T10:52:51.856Z,18.20
2018-06-04T10:55:20.179Z,18.20
2018-06-04T10:57:48.544Z,18.20
2018-06-04T11:00:16.913Z,18.20
2018-06-04T11:02:45.516Z,18.20
2018-06-04T11:05:13.842Z,18.20
2018-06-04T11:07:42.259Z,18.20
2018-06-04T11:10:10.607Z,18.20
2018-06-04T11:12:38.884Z,18.20
2018-06-04T11:15:07.364Z,18.30
2018-06-04T11:17:35.688Z,18.20
2018-06-04T11:20:04.009Z,18.20
2018-06-04T11:22:32.352Z,18.20
2018-06-04T11:25:00.779Z,18.20
2018-06-04T11:27:29.116Z,18.20
2018-06-04T11:29:57.399Z,18.10
2018-06-04T11:32:25.701Z,18.10
2018-06-04T11:34:54.061Z,18.10
2018-06-04T11:37:22.416Z,18.10
2018-06-04T11:39:50.724Z,18.10
2018-06-04T11:42:19.144Z,18.20
2018-06-04T11:44:47.485Z,18.20
2018-06-04T11:47:15.821Z,18.20
2018-06-04T11:49:44.169Z,18.20
2018-06-04T11:52:12.561Z,18.20
2018-06-04T11:54:40.954Z,18.30
2018-06-04T11:57:09.334Z,18.40
2018-06-04T11:59:37.692Z,18.60
2018-06-04T12:02:06.046Z,18.70
2018-06-04T12:04:34.352Z,18.80
2018-06-04T12:07:02.706Z,18.90
2018-06-04T12:09:31.377Z,18.90
2018-06-04T12:11:59.799Z,18.90
2018-06-04T12:14:28.108Z,18.90
2018-06-04T12:16:56.428Z,18.90
2018-06-04T12:19:24.900Z,18.90
2018-06-04T12:21:53.207Z,18.90
2018-06-04T12:24:21.535Z,18.90
2018-06-04T12:26:50.031Z,18.90
2018-06-04T12:29:18.540Z,18.80
2018-06-04T12:31:47.001Z,18.80
2018-06-04T12:34:15.460Z,18.80
2018-06-04T12:36:43.784Z,18.80
2018-06-04T12:39:12.093Z,18.80
2018-06-04T12:41:40.449Z,18.80
2018-06-04T12:44:08.813Z,18.80
2018-06-04T12:46:37.321Z,18.80
2018-06-04T12:49:05.634Z,18.80
2018-06-04T12:51:34.113Z,18.70
2018-06-04T12:54:02.436Z,18.70
2018-06-04T12:56:30.768Z,18.70
2018-06-04T12:58:59.056Z,18.70
2018-06-04T13:01:27.364Z,18.70
2018-06-04T13:03:55.700Z,18.70
2018-06-04T13:06:24.085Z,18.70
2018-06-04T13:08:52.484Z,18.70
2018-06-04T13:11:20.814Z,18.70
2018-06-04T13:13:49.148Z,18.80
2018-06-04T13:16:17.558Z,18.80
2018-06-04T13:18:46.324Z,18.90
2018-06-04T13:21:14.628Z,18.90
2018-06-04T13:23:42.948Z,18.90
2018-06-04T13:26:11.368Z,18.90
2018-06-04T13:28:39.701Z,18.90
2018-06-04T13:31:08.080Z,19.00
2018-06-04T13:33:36.453Z,18.90
2018-06-04T13:36:04.885Z,19.00
2018-06-04T13:38:33.240Z,19.00
2018-06-04T13:41:01.555Z,19.00
2018-06-04T13:43:29.899Z,19.00
2018-06-04T13:45:58.221Z,19.00
2018-06-04T13:48:26.520Z,19.00
2018-06-04T13:50:54.823Z,19.00
2018-06-04T13:53:23.132Z,18.90
2018-06-04T13:55:51.587Z,18.90
2018-06-04T13:58:19.927Z,18.90
2018-06-04T14:00:48.224Z,18.90
2018-06-04T14:03:16.545Z,18.90
2018-06-04T14:05:44.876Z,18.90
2018-06-04T14:08:13.196Z,19.00
2018-06-04T14:10:41.484Z,19.10
2018-06-04T14:15:37.879Z,19.20
2018-06-04T14:18:06.173Z,19.20
2018-06-04T14:20:34.558Z,19.20
2018-06-04T14:23:02.935Z,19.20
2018-06-04T14:25:31.384Z,19.20
2018-06-04T14:30:27.815Z,19.30
2018-06-04T14:32:56.199Z,19.30
2018-06-04T14:35:24.573Z,19.20
2018-06-04T14:37:52.884Z,19.20
2018-06-04T14:40:21.245Z,19.20
2018-06-04T14:42:49.536Z,19.30
2018-06-04T14:45:17.872Z,19.30
2018-06-04T14:47:46.192Z,19.40
2018-06-04T14:50:14.606Z,19.50
2018-06-04T14:52:42.940Z,19.50
2018-06-04T14:55:11.266Z,19.50
2018-06-04T14:57:39.628Z,19.50
2018-06-04T15:00:07.930Z,19.40
2018-06-04T15:02:36.352Z,19.40
2018-06-04T15:05:04.683Z,19.40
2018-06-04T15:07:32.996Z,19.40
2018-06-04T15:10:01.398Z,19.40
2018-06-04T15:12:29.663Z,19.40
2018-06-04T15:14:57.999Z,19.40
2018-06-04T15:17:26.466Z,19.40
2018-06-04T15:19:54.847Z,19.40
2018-06-04T15:22:23.180Z,19.40
2018-06-04T15:24:51.636Z,19.40
2018-06-04T15:27:19.987Z,19.40
2018-06-04T15:29:48.336Z,19.40
2018-06-04T15:32:16.824Z,19.40
2018-06-04T15:34:45.152Z,19.50
2018-06-04T15:37:13.439Z,19.50
2018-06-04T15:42:09.887Z,19.50
2018-06-04T15:44:38.227Z,19.50
2018-06-04T15:47:06.547Z,19.50
2018-06-04T15:49:34.840Z,19.50
2018-06-04T15:52:03.184Z,19.50
2018-06-04T15:54:31.522Z,19.40
2018-06-04T15:56:59.859Z,19.40
2018-06-04T15:59:28.169Z,19.40
2018-06-04T16:01:56.472Z,19.40
2018-06-04T16:04:24.776Z,19.40
2018-06-04T16:06:53.152Z,19.40
2018-06-04T16:09:21.447Z,19.40
2018-06-04T16:11:49.759Z,19.40
2018-06-04T16:14:18.080Z,19.40
2018-06-04T16:16:46.441Z,19.30
2018-06-04T16:19:14.842Z,19.30
2018-06-04T16:21:43.228Z,19.30
2018-06-04T16:24:11.660Z,19.20
2018-06-04T16:26:39.960Z,19.20
2018-06-04T16:29:08.296Z,19.10
2018-06-04T16:31:36.628Z,19.10
2018-06-04T16:34:05.107Z,19.10
2018-06-04T16:36:33.396Z,19.10
2018-06-04T16:39:19.460Z,19.00
2018-06-04T16:41:48.636Z,19.00
2018-06-04T16:44:16.943Z,18.90
2018-06-04T16:46:45.371Z,18.90
2018-06-04T16:49:13.691Z,18.90
2018-06-04T16:51:42.452Z,18.80
2018-06-04T16:54:11.013Z,18.80
2018-06-04T16:56:39.393Z,18.70
2018-06-04T16:59:07.728Z,18.70
2018-06-04T17:01:36.076Z,18.70
2018-06-04T17:04:04.388Z,18.60
2018-06-04T17:06:32.724Z,18.60
2018-06-04T17:09:01.380Z,18.50
2018-06-04T17:11:29.684Z,18.50
2018-06-04T17:13:58.079Z,18.50
2018-06-04T17:16:26.384Z,18.50
2018-06-04T17:18:54.675Z,18.40
2018-06-04T17:21:22.998Z,18.40
2018-06-04T17:23:51.519Z,18.40
2018-06-04T17:26:19.818Z,18.30
2018-06-04T17:31:16.193Z,18.30
2018-06-04T17:33:44.514Z,18.20
2018-06-04T17:36:12.812Z,18.20
2018-06-04T17:38:41.303Z,18.20
2018-06-04T17:43:37.771Z,18.10
2018-06-04T17:46:06.111Z,18.00
2018-06-04T17:48:34.449Z,18.00
2018-06-04T17:51:02.788Z,18.00
2018-06-04T17:53:31.104Z,18.00
2018-06-04T17:55:59.423Z,18.00
2018-06-04T17:58:27.748Z,18.00
2018-06-04T18:00:56.136Z,17.90
2018-06-04T18:03:24.641Z,17.90
2018-06-04T18:05:52.947Z,17.90
2018-06-04T18:08:21.315Z,17.90
2018-06-04T18:10:49.764Z,17.90
2018-06-04T18:13:18.070Z,17.80
2018-06-04T18:15:46.448Z,17.80
2018-06-04T18:18:14.768Z,17.80
2018-06-04T18:20:43.064Z,17.80
2018-06-04T18:23:11.409Z,17.70
2018-06-04T18:28:07.736Z,17.60
2018-06-04T18:30:36.080Z,17.60
2018-06-04T18:33:04.891Z,17.60
2018-06-04T18:35:33.180Z,17.60
2018-06-04T18:38:01.552Z,17.50
2018-06-04T18:40:29.886Z,17.50
2018-06-04T18:42:58.223Z,17.50
2018-06-04T18:45:26.584Z,17.50
2018-06-04T18:47:54.931Z,17.40
2018-06-04T18:50:23.223Z,17.40
2018-06-04T18:52:51.611Z,17.30
2018-06-04T18:57:48.179Z,17.30
2018-06-04T19:00:16.539Z,17.20
2018-06-04T19:02:45.001Z,17.20
2018-06-04T19:05:13.327Z,17.20
2018-06-04T19:07:41.628Z,17.20
2018-06-04T19:10:09.921Z,17.20
2018-06-04T19:12:38.252Z,17.10
2018-06-04T19:15:06.680Z,17.10
2018-06-04T19:17:35.004Z,17.10
2018-06-04T19:20:03.363Z,17.10
2018-06-04T19:22:31.715Z,17.10
2018-06-04T19:25:00.015Z,17.10
2018-06-04T19:27:28.358Z,17.10
2018-06-04T19:29:56.715Z,17.10
2018-06-04T19:32:25.038Z,17.10
2018-06-04T19:34:53.347Z,17.10
2018-06-04T19:37:21.687Z,17.00
2018-06-04T19:39:50.035Z,17.00
2018-06-04T19:42:18.391Z,17.00
2018-06-04T19:44:47.476Z,17.00
2018-06-04T19:47:15.768Z,17.00
2018-06-04T19:52:12.168Z,17.00
2018-06-04T19:54:40.483Z,17.00
2018-06-04T19:57:08.840Z,17.00
2018-06-04T19:59:37.256Z,17.00
2018-06-04T20:02:05.668Z,16.90
2018-06-04T20:04:33.981Z,16.90
2018-06-04T20:07:02.294Z,16.90
2018-06-04T20:09:30.682Z,16.90
2018-06-04T20:11:59.152Z,16.90
2018-06-04T20:14:27.483Z,16.90
2018-06-04T20:16:55.820Z,16.90
2018-06-04T20:19:24.148Z,16.80
2018-06-04T20:21:52.512Z,16.90
2018-06-04T20:24:20.924Z,16.90
2018-06-04T20:26:49.303Z,16.80
2018-06-04T20:29:17.618Z,16.80
2018-06-04T20:31:46.043Z,16.80
2018-06-04T20:34:14.320Z,16.80
2018-06-04T20:36:42.616Z,16.80
2018-06-04T20:39:10.954Z,16.80
2018-06-04T20:41:39.277Z,16.80
2018-06-04T20:44:07.664Z,16.80
2018-06-04T20:46:35.984Z,16.80
2018-06-04T20:49:04.352Z,16.80
2018-06-04T20:51:32.687Z,16.80
2018-06-04T20:54:00.992Z,16.80
2018-06-04T20:56:29.323Z,16.70
2018-06-04T20:58:57.619Z,16.70
2018-06-04T21:01:26.007Z,16.70
2018-06-04T21:03:54.324Z,16.70
2018-06-04T21:06:22.652Z,16.70
2018-06-04T21:08:51.030Z,16.70
2018-06-04T21:11:19.369Z,16.70
2018-06-04T21:13:47.668Z,16.70
2018-06-04T21:16:15.993Z,16.70
2018-06-04T21:18:44.352Z,16.80
2018-06-04T21:21:12.662Z,16.80
2018-06-04T21:23:40.963Z,16.80
2018-06-04T21:26:09.274Z,16.80
2018-06-04T21:28:37.615Z,16.80
2018-06-04T21:31:05.924Z,16.80
2018-06-04T21:33:34.275Z,16.80
2018-06-04T21:36:02.667Z,16.80
2018-06-04T21:40:59.009Z,16.80
2018-06-04T21:43:27.306Z,16.80
2018-06-04T21:45:55.652Z,16.80
2018-06-04T21:48:23.974Z,16.80
2018-06-04T21:50:52.274Z,16.80
2018-06-04T21:53:20.579Z,16.80
2018-06-04T21:55:48.904Z,16.80
2018-06-04T21:58:17.244Z,16.80
2018-06-04T22:00:45.610Z,16.80
2018-06-04T22:03:13.928Z,16.80
2018-06-04T22:05:42.252Z,16.80
2018-06-04T22:08:10.568Z,16.80
2018-06-04T22:10:39.023Z,16.80
2018-06-04T22:13:07.380Z,16.80
2018-06-04T22:15:35.669Z,16.80
2018-06-04T22:18:04.056Z,16.80
2018-06-04T22:20:32.337Z,16.80
2018-06-04T22:23:00.787Z,16.80
2018-06-04T22:25:29.108Z,16.80
2018-06-04T22:27:57.396Z,16.70
2018-06-04T22:30:25.700Z,16.70
2018-06-04T22:35:22.084Z,16.60
2018-06-04T22:37:50.428Z,16.60
2018-06-04T22:45:14.859Z,16.50
2018-06-04T22:47:43.218Z,16.50
2018-06-04T22:50:11.537Z,16.40
2018-06-04T22:52:39.887Z,16.40
2018-06-04T22:55:08.840Z,16.40
2018-06-04T22:57:37.159Z,16.30
2018-06-04T23:00:05.504Z,16.30
2018-06-04T23:02:35.449Z,16.30
2018-06-04T23:05:03.868Z,16.30
2018-06-04T23:07:32.204Z,16.20
2018-06-04T23:10:00.514Z,16.20
2018-06-04T23:12:28.810Z,16.20
2018-06-04T23:14:57.172Z,16.20
2018-06-04T23:17:25.487Z,16.10
2018-06-04T23:19:53.793Z,16.10
2018-06-04T23:22:22.692Z,16.10
2018-06-04T23:24:51.010Z,16.00
2018-06-04T23:27:19.336Z,16.00
2018-06-04T23:34:43.895Z,15.80
2018-06-04T23:37:12.208Z,15.80
2018-06-04T23:39:40.537Z,15.70
2018-06-04T23:42:08.840Z,15.60
2018-06-04T23:44:37.130Z,15.60
2018-06-04T23:47:05.447Z,15.50
2018-06-04T23:49:33.790Z,15.40
2018-06-04T23:52:02.172Z,15.40
2018-06-04T23:54:30.490Z,15.30
2018-06-04T23:56:58.812Z,15.30
2018-06-04T23:59:27.172Z,15.20
